Time;durP1;ratioP1;P1;durP2;ratioP2;P2;SDS_P1;SDS_P2;PMS_P1;PMS_P2;Temp;Humidity;BMP_temperature;BMP_pressure;BME280_temperature;BME280_humidity;BME280_pressure;Samples;Min_cycle;Max_cycle;Signal;HPM_P1;HPM_P2
2022/09/07 00:01:13;;;;;;;10.30;4.60;;;;;;;11.09;50.93;100996.89;104280;1276;94861;-71
2022/09/07 00:03:41;;;;;;;10.80;4.70;;;;;;;11.10;51.34;100995.46;104449;1274;106364;-72
2022/09/07 00:06:11;;;;;;;10.70;4.40;;;;;;;11.12;51.15;100991.34;104161;1274;137701;-73
2022/09/07 00:08:42;;;;;;;10.00;4.40;;;;;;;11.10;51.46;100984.27;104239;1277;108257;-72
2022/09/07 00:11:15;;;;;;;10.00;4.90;;;;;;;11.07;51.56;100979.70;104274;1274;138036;-73
2022/09/07 00:13:46;;;;;;;9.50;4.40;;;;;;;11.00;51.71;100978.23;104368;1274;94855;-71
2022/09/07 00:16:20;;;;;;;9.80;4.30;;;;;;;10.98;51.69;100979.70;104165;1274;138367;-71
2022/09/07 00:18:48;;;;;;;11.30;4.70;;;;;;;10.97;51.94;100978.82;104167;1277;98372;-74
2022/09/07 00:21:17;;;;;;;10.70;5.00;;;;;;;10.99;51.70;100981.64;104149;1274;109214;-73
2022/09/07 00:23:47;;;;;;;8.60;4.30;;;;;;;10.94;51.69;100977.27;104213;1274;138435;-71
2022/09/07 00:26:19;;;;;;;9.50;4.20;;;;;;;10.88;52.03;100976.84;104275;1274;94338;-72
2022/09/07 00:28:47;;;;;;;10.50;4.30;;;;;;;10.84;52.18;100978.17;104068;1277;137867;-71
2022/09/07 00:31:18;;;;;;;10.00;4.70;;;;;;;10.82;52.29;100975.19;104118;1277;98957;-71
2022/09/07 00:33:47;;;;;;;9.20;4.40;;;;;;;10.78;52.14;100972.95;104366;1274;107960;-72
2022/09/07 00:36:17;;;;;;;8.80;4.40;;;;;;;10.76;52.45;100970.84;104360;1274;138007;-71
2022/09/07 00:38:46;;;;;;;11.10;4.50;;;;;;;10.67;52.28;100966.58;104182;1274;94345;-72
2022/09/07 00:41:15;;;;;;;10.60;5.10;;;;;;;10.59;52.28;100965.48;104142;1274;138694;-71
2022/09/07 00:43:53;;;;;;;9.70;4.30;;;;;;;10.50;52.52;100968.64;104218;1274;97652;-73
2022/09/07 00:46:24;;;;;;;10.50;4.60;;;;;;;10.46;53.15;100969.07;103924;1274;137487;-72
2022/09/07 00:49:14;;;;;;;9.70;4.60;;;;;;;10.44;53.03;100967.67;104126;1274;96764;-71
2022/09/07 00:51:47;;;;;;;12.50;5.10;;;;;;;10.41;53.05;100968.60;104200;1274;94372;-72
2022/09/07 00:54:23;;;;;;;9.30;4.50;;;;;;;10.39;52.97;100965.27;104173;1274;138125;-73
2022/09/07 00:56:52;;;;;;;11.00;4.60;;;;;;;10.36;53.24;100961.23;104236;1274;96881;-73
2022/09/07 00:59:27;;;;;;;11.50;4.70;;;;;;;10.34;53.40;100961.41;104174;1274;138191;-72
2022/09/07 01:01:56;;;;;;;10.30;4.80;;;;;;;10.36;53.31;100964.08;104167;1276;94406;-70
2022/09/07 01:04:24;;;;;;;10.00;4.90;;;;;;;10.40;53.46;100961.17;104132;1274;139013;-72
2022/09/07 01:06:54;;;;;;;10.90;4.70;;;;;;;10.38;53.49;100964.05;104394;1274;107324;-72
2022/09/07 01:09:25;;;;;;;10.80;4.80;;;;;;;10.32;53.37;100958.43;104245;1274;98899;-72
2022/09/07 01:11:58;;;;;;;10.50;4.70;;;;;;;10.26;53.58;100965.80;104012;1276;138613;-72
2022/09/07 01:14:34;;;;;;;10.60;5.00;;;;;;;10.19;53.87;100969.81;104135;1274;94495;-73
2022/09/07 01:17:25;;;;;;;10.00;4.50;;;;;;;10.18;53.80;100968.05;104125;1274;136439;-73
2022/09/07 01:20:08;;;;;;;10.60;5.20;;;;;;;10.15;53.85;100968.64;104330;1274;107374;-73
2022/09/07 01:23:15;;;;;;;11.60;4.90;;;;;;;10.11;54.89;100968.16;104006;1274;139150;-72
2022/09/07 01:26:01;;;;;;;10.60;4.80;;;;;;;10.08;54.62;100964.48;104269;1274;107820;-73
2022/09/07 01:28:33;;;;;;;9.40;4.20;;;;;;;10.12;54.50;100962.47;104238;1274;138578;-72
2022/09/07 01:31:19;;;;;;;9.00;4.40;;;;;;;10.20;54.34;100960.57;103304;1274;1585895;-72
2022/09/07 01:34:04;;;;;;;10.50;4.70;;;;;;;10.27;54.49;100959.40;104327;1274;108373;-73
2022/09/07 01:36:35;;;;;;;10.10;4.60;;;;;;;10.22;54.38;100959.83;104318;1274;97328;-73
2022/09/07 01:39:05;;;;;;;10.60;4.90;;;;;;;10.13;54.40;100962.09;104222;1274;107751;-71
2022/09/07 01:41:43;;;;;;;8.70;4.50;;;;;;;10.05;54.66;100958.48;104178;1277;137859;-72
2022/09/07 01:44:19;;;;;;;9.70;4.60;;;;;;;10.00;54.84;100962.83;104069;1276;95513;-72
2022/09/07 01:47:08;;;;;;;9.50;4.90;;;;;;;10.01;55.11;100963.52;104048;1277;137684;-72
2022/09/07 01:50:21;;;;;;;10.00;5.10;;;;;;;10.01;55.06;100960.67;104423;1274;98767;-73
2022/09/07 01:52:58;;;;;;;10.50;4.70;;;;;;;9.96;55.10;100966.27;104184;1274;138040;-73
2022/09/07 01:55:35;;;;;;;10.40;4.40;;;;;;;9.94;55.61;100966.11;104211;1277;94619;-72
2022/09/07 01:58:18;;;;;;;9.30;4.00;;;;;;;9.95;55.43;100968.58;104186;1274;138577;-73
2022/09/07 02:00:53;;;;;;;8.80;4.50;;;;;;;9.92;55.57;100964.89;104307;1274;109019;-74
2022/09/07 02:03:31;;;;;;;9.70;4.60;;;;;;;9.92;55.80;100964.55;104222;1277;97339;-71
2022/09/07 02:06:11;;;;;;;10.20;4.40;;;;;;;9.85;55.45;100967.84;104065;1274;137504;-74
2022/09/07 02:08:43;;;;;;;9.10;4.50;;;;;;;9.82;55.74;100967.69;104312;1274;94756;-73
2022/09/07 02:11:35;;;;;;;9.40;4.40;;;;;;;9.82;55.85;100968.23;104143;1277;137805;-72
2022/09/07 02:14:17;;;;;;;10.00;4.80;;;;;;;9.75;56.05;100966.38;104330;1274;107436;-72
2022/09/07 02:17:09;;;;;;;9.30;4.60;;;;;;;9.67;56.14;100963.27;104161;1275;138204;-72
2022/09/07 02:19:45;;;;;;;9.00;4.50;;;;;;;9.63;56.26;100959.64;104251;1274;107681;-73
2022/09/07 02:22:20;;;;;;;8.80;4.20;;;;;;;9.65;56.46;100958.52;104241;1274;138003;-73
2022/09/07 02:24:53;;;;;;;10.00;4.40;;;;;;;9.65;56.30;100953.38;104146;1276;96331;-72
2022/09/07 02:27:33;;;;;;;9.10;4.40;;;;;;;9.67;56.36;100954.24;104226;1274;106901;-71
2022/09/07 02:30:01;;;;;;;9.30;4.60;;;;;;;9.68;56.30;100952.83;104284;1274;137669;-71
2022/09/07 02:32:29;;;;;;;9.10;4.40;;;;;;;9.72;56.29;100948.67;104172;1277;108396;-71
2022/09/07 02:34:57;;;;;;;9.80;4.30;;;;;;;9.77;56.34;100950.21;104287;1274;137716;-72
2022/09/07 02:37:27;;;;;;;12.20;4.70;;;;;;;9.79;56.02;100949.48;104290;1274;94319;-73
2022/09/07 02:39:56;;;;;;;10.20;4.50;;;;;;;9.81;56.06;100946.61;104206;1276;138301;-72
2022/09/07 02:42:33;;;;;;;8.70;4.20;;;;;;;9.81;56.11;100943.95;104373;1274;97000;-74
2022/09/07 02:45:05;;;;;;;9.20;4.70;;;;;;;9.77;56.16;100943.29;104337;1274;107741;-73
2022/09/07 02:48:03;;;;;;;9.50;4.50;;;;;;;9.70;56.46;100940.73;104375;1274;137330;-72
2022/09/07 02:50:54;;;;;;;9.30;4.60;;;;;;;9.66;56.59;100938.11;104279;1277;95557;-74
2022/09/07 02:53:51;;;;;;;8.40;4.00;;;;;;;9.64;56.63;100931.41;104169;1274;137575;-73
2022/09/07 02:56:22;;;;;;;9.30;4.40;;;;;;;9.62;56.71;100932.33;104295;1275;98336;-73
2022/09/07 02:59:11;;;;;;;9.30;4.50;;;;;;;9.59;56.82;100926.52;104240;1274;138377;-73
2022/09/07 03:01:48;;;;;;;9.30;4.20;;;;;;;9.58;56.76;100927.96;104325;1274;94335;-71
2022/09/07 03:04:39;;;;;;;11.00;4.50;;;;;;;9.57;56.81;100926.91;104119;1274;138185;-73
2022/09/07 03:07:22;;;;;;;11.80;4.50;;;;;;;9.57;56.81;100925.66;104135;1274;106478;-72
2022/09/07 03:09:53;;;;;;;8.70;3.90;;;;;;;9.50;57.00;100920.97;104164;1276;98347;-73
2022/09/07 03:12:21;;;;;;;10.20;3.90;;;;;;;9.52;56.91;100919.69;104386;1274;107884;-73
2022/09/07 03:14:49;;;;;;;11.40;4.40;;;;;;;9.55;57.26;100921.44;104277;1277;94307;-71
2022/09/07 03:17:17;;;;;;;10.20;4.30;;;;;;;9.51;57.11;100922.21;104145;1274;137533;-74
2022/09/07 03:19:45;;;;;;;9.20;4.30;;;;;;;9.44;57.07;100919.44;104148;1274;106072;-73
2022/09/07 03:22:13;;;;;;;9.60;4.50;;;;;;;9.40;57.41;100918.80;104066;1275;160762;-73
2022/09/07 03:24:41;;;;;;;9.90;4.70;;;;;;;9.37;57.60;100918.14;104229;1274;107615;-73
2022/09/07 03:27:10;;;;;;;8.70;4.40;;;;;;;9.37;57.55;100925.74;104188;1276;94421;-74
2022/09/07 03:29:38;;;;;;;9.30;4.40;;;;;;;9.30;57.61;100930.44;104126;1274;137640;-72
2022/09/07 03:32:08;;;;;;;9.30;4.20;;;;;;;9.31;57.88;100928.47;104127;1276;108364;-72
2022/09/07 03:34:36;;;;;;;9.00;4.00;;;;;;;9.35;57.63;100928.96;103995;1277;137808;-73
2022/09/07 03:37:04;;;;;;;10.30;4.10;;;;;;;9.35;57.59;100928.79;104209;1277;107737;-72
2022/09/07 03:39:33;;;;;;;10.40;4.20;;;;;;;9.33;57.52;100928.98;104302;1274;94414;-72
2022/09/07 03:42:01;;;;;;;8.90;4.50;;;;;;;9.32;57.52;100928.12;104117;1274;138460;-71
2022/09/07 03:44:29;;;;;;;11.70;4.70;;;;;;;9.30;57.54;100931.14;104125;1275;108563;-72
2022/09/07 03:46:57;;;;;;;12.00;4.10;;;;;;;9.27;57.91;100930.65;104251;1274;137684;-72
2022/09/07 03:49:25;;;;;;;9.90;4.30;;;;;;;9.25;58.08;100928.38;104356;1274;107917;-72
2022/09/07 03:51:53;;;;;;;9.10;4.30;;;;;;;9.21;57.99;100928.95;104267;1274;138290;-73
2022/09/07 03:54:21;;;;;;;10.00;4.20;;;;;;;9.18;58.05;100928.63;104413;1274;96176;-73
2022/09/07 03:56:49;;;;;;;10.50;4.30;;;;;;;9.19;58.30;100928.63;104327;1274;107446;-72
2022/09/07 03:59:17;;;;;;;8.10;4.10;;;;;;;9.18;58.25;100930.59;104129;1274;138057;-72
2022/09/07 04:01:45;;;;;;;10.50;4.40;;;;;;;9.14;58.35;100928.15;104375;1274;107792;-73
2022/09/07 04:04:13;;;;;;;8.50;4.00;;;;;;;9.09;58.97;100923.44;104195;1274;138918;-72
2022/09/07 04:06:41;;;;;;;9.90;4.40;;;;;;;9.10;58.77;100926.80;104423;1274;94434;-72
2022/09/07 04:09:12;;;;;;;10.70;4.50;;;;;;;9.15;58.50;100927.45;104416;1274;107370;-72
2022/09/07 04:11:42;;;;;;;9.20;4.30;;;;;;;9.17;58.27;100927.59;104121;1275;138658;-71
2022/09/07 04:14:10;;;;;;;9.60;4.40;;;;;;;9.18;58.50;100931.66;104291;1277;107897;-73
2022/09/07 04:16:39;;;;;;;9.80;4.30;;;;;;;9.16;58.43;100933.62;104208;1277;138689;-72
2022/09/07 04:19:07;;;;;;;9.90;4.60;;;;;;;9.17;58.35;100930.43;104535;1274;94376;-70
2022/09/07 04:21:35;;;;;;;8.80;4.40;;;;;;;9.19;58.41;100929.16;104360;1277;107466;-73
2022/09/07 04:24:04;;;;;;;9.70;4.00;;;;;;;9.14;58.88;100931.88;104130;1278;138776;-70
2022/09/07 04:26:34;;;;;;;9.70;4.70;;;;;;;9.14;58.87;100936.30;104412;1274;108363;-71
2022/09/07 04:29:03;;;;;;;9.10;4.10;;;;;;;9.17;58.88;100933.24;104335;1274;138876;-72
2022/09/07 04:31:34;;;;;;;10.40;4.30;;;;;;;9.20;59.13;100931.10;104332;1275;94788;-72
2022/09/07 04:34:04;;;;;;;9.70;4.50;;;;;;;9.16;59.25;100930.61;104202;1277;138796;-72
2022/09/07 04:36:33;;;;;;;9.40;4.40;;;;;;;9.15;59.67;100930.63;104536;1274;98369;-72
2022/09/07 04:39:04;;;;;;;8.30;4.20;;;;;;;9.12;59.31;100936.69;104413;1277;107563;-72
2022/09/07 04:41:33;;;;;;;9.10;4.10;;;;;;;9.09;59.43;100933.01;104173;1277;137949;-72
2022/09/07 04:44:03;;;;;;;9.60;4.50;;;;;;;9.12;59.61;100936.87;104213;1278;94870;-72
2022/09/07 04:46:35;;;;;;;11.30;4.60;;;;;;;9.22;59.24;100930.20;104340;1274;136463;-72
2022/09/07 04:49:07;;;;;;;9.80;4.10;;;;;;;9.20;59.32;100934.11;104136;1278;98189;-72
2022/09/07 04:51:37;;;;;;;10.00;4.60;;;;;;;9.20;59.67;100933.93;104588;1274;107770;-71
2022/09/07 04:54:05;;;;;;;11.30;4.70;;;;;;;9.21;59.15;100935.88;104395;1274;137923;-72
2022/09/07 04:56:34;;;;;;;10.50;4.40;;;;;;;9.24;59.05;100937.98;104544;1274;95253;-71
2022/09/07 04:59:02;;;;;;;10.00;4.50;;;;;;;9.28;59.05;100940.92;104347;1274;137471;-71
2022/09/07 05:01:31;;;;;;;10.50;4.20;;;;;;;9.34;59.16;100941.73;104245;1278;99891;-73
2022/09/07 05:04:00;;;;;;;10.80;4.40;;;;;;;9.31;58.32;100941.24;104272;1274;138160;-73
2022/09/07 05:06:28;;;;;;;9.90;4.00;;;;;;;9.27;57.97;100938.45;104201;1275;94565;-72
2022/09/07 05:08:57;;;;;;;11.60;4.10;;;;;;;9.28;57.87;100941.29;104083;1281;94837;-72
2022/09/07 05:11:26;;;;;;;10.00;4.20;;;;;;;9.27;57.61;100937.75;104093;1277;137787;-73
2022/09/07 05:14:01;;;;;;;10.00;4.30;;;;;;;9.27;57.54;100945.55;104332;1275;98548;-71
2022/09/07 05:16:30;;;;;;;9.50;4.10;;;;;;;9.26;57.64;100945.37;104146;1278;137748;-72
2022/09/07 05:19:01;;;;;;;9.10;3.90;;;;;;;9.27;57.26;100945.20;104379;1275;94763;-71
2022/09/07 05:21:33;;;;;;;11.00;4.30;;;;;;;9.32;57.57;100941.77;104251;1277;94469;-72
2022/09/07 05:24:01;;;;;;;8.40;3.60;;;;;;;9.38;57.75;100938.14;104165;1277;138455;-73
2022/09/07 05:26:31;;;;;;;10.60;3.90;;;;;;;9.45;57.57;100937.00;104434;1274;99291;-72
2022/09/07 05:29:01;;;;;;;9.50;3.70;;;;;;;9.48;56.77;100936.23;105639;1277;137582;-72
2022/09/07 05:31:49;;;;;;;8.60;3.60;;;;;;;9.53;56.77;100940.07;104351;1278;94906;-72
2022/09/07 05:34:17;;;;;;;11.30;4.40;;;;;;;9.60;56.79;100941.04;104496;1274;137389;-72
2022/09/07 05:37:00;;;;;;;9.40;4.00;;;;;;;9.69;56.72;100942.52;104168;1277;105665;-72
2022/09/07 05:39:29;;;;;;;9.40;3.90;;;;;;;9.80;56.63;100941.30;104166;1275;98476;-72
2022/09/07 05:41:58;;;;;;;11.60;4.00;;;;;;;9.90;56.40;100940.80;103977;1278;137795;-71
2022/09/07 05:44:25;;;;;;;7.70;3.70;;;;;;;9.99;56.41;100943.86;104144;1274;94472;-73
2022/09/07 05:47:09;;;;;;;8.10;3.60;;;;;;;10.11;56.43;100945.11;104186;1274;137297;-72
2022/09/07 05:49:37;;;;;;;8.50;3.70;;;;;;;10.20;56.08;100938.73;104200;1275;105980;-72
2022/09/07 05:52:05;;;;;;;7.80;3.50;;;;;;;10.28;55.56;100937.54;104113;1277;137895;-72
2022/09/07 05:54:33;;;;;;;8.50;3.60;;;;;;;10.37;55.14;100934.92;104429;1274;108015;-73
2022/09/07 05:57:02;;;;;;;7.90;3.10;;;;;;;10.48;54.80;100937.42;104416;1274;94321;-72
2022/09/07 05:59:30;;;;;;;8.80;3.30;;;;;;;10.59;54.38;100937.95;104333;1274;138246;-72
2022/09/07 06:01:59;;;;;;;7.90;3.80;;;;;;;10.70;54.23;100935.25;104233;1277;107175;-72
2022/09/07 06:04:27;;;;;;;8.30;3.60;;;;;;;10.83;54.08;100930.77;104232;1274;137954;-72
2022/09/07 06:06:55;;;;;;;7.30;3.30;;;;;;;10.95;53.90;100931.77;104110;1275;106793;-73
2022/09/07 06:09:42;;;;;;;7.80;3.30;;;;;;;11.09;53.68;100929.39;104338;1274;94823;-71
2022/09/07 06:12:30;;;;;;;8.40;3.90;;;;;;;11.24;52.74;100931.92;104392;1274;94520;-70
2022/09/07 06:15:00;;;;;;;7.30;3.30;;;;;;;11.35;52.02;100932.58;104252;1274;107376;-73
2022/09/07 06:17:29;;;;;;;9.60;3.30;;;;;;;11.48;52.40;100928.20;104422;1274;138169;-72
2022/09/07 06:19:57;;;;;;;8.50;3.30;;;;;;;11.61;52.36;100925.08;104277;1275;108346;-74
2022/09/07 06:22:25;;;;;;;7.60;3.20;;;;;;;11.73;52.29;100920.89;104144;1274;137920;-70
2022/09/07 06:24:58;;;;;;;7.60;3.20;;;;;;;11.88;52.12;100918.97;104358;1274;94772;-73
2022/09/07 06:27:26;;;;;;;9.70;3.20;;;;;;;12.00;51.77;100917.10;104250;1274;107350;-72
2022/09/07 06:29:54;;;;;;;8.40;3.10;;;;;;;12.12;50.76;100910.95;104044;1274;138909;-72
2022/09/07 06:32:23;;;;;;;9.40;3.30;;;;;;;12.23;50.94;100903.54;104352;1274;107563;-72
2022/09/07 06:35:12;;;;;;;8.20;3.10;;;;;;;12.33;50.27;100901.52;104355;1274;137764;-71
2022/09/07 06:37:40;;;;;;;7.30;3.00;;;;;;;12.44;49.78;100904.45;104427;1274;94759;-71
2022/09/07 06:40:10;;;;;;;7.40;2.80;;;;;;;12.56;49.17;100904.50;104684;1274;137776;-73
2022/09/07 06:42:39;;;;;;;6.90;2.90;;;;;;;12.69;48.48;100897.20;104542;1274;99432;-71
2022/09/07 06:45:09;;;;;;;7.00;2.70;;;;;;;12.81;49.09;100895.27;104505;1274;108988;-71
2022/09/07 06:47:39;;;;;;;8.60;2.60;;;;;;;12.94;47.95;100889.38;103995;1277;138115;-74
2022/09/07 06:50:08;;;;;;;8.40;3.00;;;;;;;13.06;48.42;100885.64;104175;1275;94510;-71
2022/09/07 06:52:36;;;;;;;6.50;2.30;;;;;;;13.21;47.29;100887.19;104299;1275;138186;-72
2022/09/07 06:55:26;;;;;;;5.70;2.20;;;;;;;13.38;46.91;100892.57;104517;1274;98519;-71
2022/09/07 06:57:54;;;;;;;6.60;2.40;;;;;;;13.53;46.63;100894.11;104325;1274;137725;-73
2022/09/07 07:00:22;;;;;;;6.80;2.30;;;;;;;13.66;46.17;100901.75;104304;1277;94347;-72
2022/09/07 07:02:50;;;;;;;7.80;2.50;;;;;;;13.75;46.38;100895.76;104354;1274;94696;-73
2022/09/07 07:05:18;;;;;;;6.70;2.40;;;;;;;13.88;45.90;100897.50;104376;1277;137681;-72
2022/09/07 07:07:46;;;;;;;6.50;2.20;;;;;;;14.06;44.51;100899.05;104533;1274;99788;-72
2022/09/07 07:10:14;;;;;;;6.20;2.10;;;;;;;14.19;44.85;100904.50;104353;1274;138805;-71
2022/09/07 07:12:55;;;;;;;7.60;2.00;;;;;;;14.32;43.39;100905.33;104350;1274;94340;-71
2022/09/07 07:15:27;;;;;;;8.10;2.00;;;;;;;14.45;44.01;100910.27;104328;1274;94885;-73
2022/09/07 07:17:55;;;;;;;6.40;2.10;;;;;;;14.58;43.12;100915.00;104157;1275;137542;-71
2022/09/07 07:20:37;;;;;;;6.60;1.80;;;;;;;14.67;42.62;100917.40;104557;1274;97495;-71
2022/09/07 07:23:05;;;;;;;5.10;1.70;;;;;;;14.81;41.27;100924.05;104718;1274;138380;-74
2022/09/07 07:25:34;;;;;;;5.80;1.40;;;;;;;14.95;41.18;100928.02;104661;1273;94573;-73
2022/09/07 07:28:03;;;;;;;4.60;1.50;;;;;;;15.10;39.94;100930.70;104352;1280;137708;-72
2022/09/07 07:31:03;;;;;;;5.60;1.60;;;;;;;15.22;40.18;100935.80;104379;1274;108407;-70
2022/09/07 07:33:37;;;;;;;5.10;1.60;;;;;;;15.31;40.31;100939.74;104891;1274;98133;-70
2022/09/07 07:36:10;;;;;;;6.70;1.60;;;;;;;15.43;39.17;100938.95;104409;1276;138236;-71
2022/09/07 07:38:40;;;;;;;5.90;1.40;;;;;;;15.57;39.19;100942.19;104439;1274;94395;-74
2022/09/07 07:41:30;;;;;;;5.50;1.20;;;;;;;15.69;37.91;100935.09;104569;1274;137554;-72
2022/09/07 07:44:19;;;;;;;4.60;1.20;;;;;;;15.71;37.34;100939.15;104852;1274;107561;-73
2022/09/07 07:46:50;;;;;;;3.30;1.00;;;;;;;15.78;36.65;100933.67;105020;1274;137886;-73
2022/09/07 07:49:19;;;;;;;4.40;1.30;;;;;;;15.83;36.13;100926.73;104483;1277;107742;-72
2022/09/07 07:51:46;;;;;;;4.90;1.10;;;;;;;15.92;36.97;100920.63;104485;1275;94289;-69
2022/09/07 07:54:38;;;;;;;4.10;1.00;;;;;;;16.06;37.08;100914.50;104363;1274;94852;-74
2022/09/07 07:57:06;;;;;;;3.90;1.10;;;;;;;16.16;36.38;100913.20;104798;1274;106971;-75
2022/09/07 07:59:34;;;;;;;5.00;1.00;;;;;;;16.27;35.94;100918.15;104504;1274;137796;-72
2022/09/07 08:02:04;;;;;;;6.00;1.00;;;;;;;16.41;35.49;100913.61;104742;1274;108569;-73
2022/09/07 08:04:34;;;;;;;3.70;1.00;;;;;;;16.53;35.06;100912.54;104563;1274;138550;-72
2022/09/07 08:07:03;;;;;;;5.60;1.10;;;;;;;16.61;34.41;100906.84;104609;1276;94806;-72
2022/09/07 08:09:43;;;;;;;4.00;0.90;;;;;;;16.70;34.02;100905.02;104702;1276;108392;-74
2022/09/07 08:12:15;;;;;;;3.80;0.90;;;;;;;16.79;33.97;100906.44;104573;1274;137824;-74
2022/09/07 08:14:44;;;;;;;4.70;1.10;;;;;;;16.89;33.17;100902.94;104872;1274;108994;-74
2022/09/07 08:17:15;;;;;;;3.40;0.80;;;;;;;16.94;33.26;100898.44;104824;1274;137198;-75
2022/09/07 08:19:44;;;;;;;3.80;0.90;;;;;;;17.03;33.52;100894.77;104405;1274;94667;-74
2022/09/07 08:22:12;;;;;;;4.10;0.90;;;;;;;17.12;32.20;100900.16;104761;1274;137851;-74
2022/09/07 08:24:40;;;;;;;2.90;0.80;;;;;;;17.16;31.60;100898.53;104884;1274;99406;-73
2022/09/07 08:27:08;;;;;;;3.50;0.90;;;;;;;17.24;32.29;100889.52;104420;1274;105927;-74
2022/09/07 08:29:35;;;;;;;3.50;0.90;;;;;;;17.40;33.45;100892.20;104460;1274;138407;-73
2022/09/07 08:32:05;;;;;;;4.20;0.90;;;;;;;17.52;31.74;100895.92;104759;1274;94280;-70
2022/09/07 08:34:36;;;;;;;4.20;0.90;;;;;;;17.56;31.73;100886.42;104664;1274;137928;-73
2022/09/07 08:37:04;;;;;;;3.20;0.90;;;;;;;17.71;32.61;100880.87;104713;1274;98403;-70
2022/09/07 08:39:32;;;;;;;2.80;0.90;;;;;;;17.90;32.82;100882.64;104485;1274;107736;-72
2022/09/07 08:42:19;;;;;;;3.50;0.70;;;;;;;18.07;32.56;100880.73;104044;1274;138305;-72
2022/09/07 08:44:53;;;;;;;2.70;0.80;;;;;;;18.20;30.59;100882.96;104324;1274;94823;-71
2022/09/07 08:47:37;;;;;;;2.70;0.80;;;;;;;18.29;31.70;100873.00;104053;1277;137820;-73
2022/09/07 08:50:22;;;;;;;3.50;0.80;;;;;;;18.44;31.85;100871.32;104658;1274;97711;-71
2022/09/07 08:53:02;;;;;;;3.80;1.00;;;;;;;18.56;31.76;100866.59;104142;1274;138949;-74
2022/09/07 08:55:46;;;;;;;3.80;1.00;;;;;;;18.69;30.78;100865.17;104527;1274;94743;-73
2022/09/07 08:58:35;;;;;;;3.60;0.90;;;;;;;18.74;30.93;100866.04;104492;1274;137798;-70
2022/09/07 09:01:31;;;;;;;4.10;1.00;;;;;;;18.79;31.73;100870.27;104612;1274;107598;-71
2022/09/07 09:04:01;;;;;;;3.60;0.90;;;;;;;18.87;30.99;100866.02;104573;1274;138707;-70
2022/09/07 09:06:52;;;;;;;3.60;0.90;;;;;;;18.92;31.41;100859.71;104368;1275;107730;-72
2022/09/07 09:09:42;;;;;;;3.20;1.00;;;;;;;19.05;30.76;100860.21;104679;1274;94659;-70
2022/09/07 09:12:23;;;;;;;3.60;0.90;;;;;;;19.77;30.01;100850.08;104225;1274;137755;-71
2022/09/07 09:15:03;;;;;;;3.90;1.00;;;;;;;21.51;27.85;100841.36;104386;1274;108313;-73
2022/09/07 09:17:51;;;;;;;3.70;0.90;;;;;;;23.61;26.44;100836.63;104205;1274;138311;-75
2022/09/07 09:20:48;;;;;;;4.50;1.00;;;;;;;25.63;23.23;100825.14;104592;1274;108856;-72
2022/09/07 09:23:19;;;;;;;4.40;0.90;;;;;;;27.01;21.11;100820.12;104286;1274;138014;-74
2022/09/07 09:25:56;;;;;;;5.20;0.90;;;;;;;28.10;19.95;100818.82;104675;1276;94321;-71
2022/09/07 09:28:24;;;;;;;3.40;0.90;;;;;;;29.35;19.55;100814.35;104321;1274;138213;-73
2022/09/07 09:30:56;;;;;;;4.00;0.90;;;;;;;30.46;17.64;100822.20;104521;1274;98093;-71
2022/09/07 09:33:27;;;;;;;4.40;1.00;;;;;;;31.13;17.30;100819.42;104349;1274;107762;-72
2022/09/07 09:35:58;;;;;;;4.30;0.90;;;;;;;31.82;16.30;100822.27;104465;1274;137991;-73
2022/09/07 09:38:42;;;;;;;3.10;0.80;;;;;;;32.75;16.62;100817.80;104479;1274;94705;-73
2022/09/07 09:41:12;;;;;;;2.10;0.60;;;;;;;33.40;14.93;100815.39;104297;1274;138255;-73
2022/09/07 09:43:43;;;;;;;4.00;0.80;;;;;;;34.09;15.34;100813.64;104379;1277;99282;-71
2022/09/07 09:46:23;;;;;;;3.40;0.80;;;;;;;35.48;15.21;100814.34;104193;1274;137768;-74
2022/09/07 09:48:56;;;;;;;2.50;0.70;;;;;;;36.12;13.62;100810.75;104302;1274;94853;-72
2022/09/07 09:51:26;;;;;;;4.70;0.70;;;;;;;36.44;13.04;100811.82;104383;1274;94790;-70
2022/09/07 09:54:27;;;;;;;3.60;0.80;;;;;;;36.42;11.98;100807.83;104553;1274;137585;-75
2022/09/07 09:56:55;;;;;;;4.50;1.00;;;;;;;36.53;12.49;100805.06;104237;1274;98421;-72
2022/09/07 09:59:27;;;;;;;5.10;1.00;;;;;;;36.93;11.61;100797.24;104222;1274;137594;-73
2022/09/07 10:02:30;;;;;;;4.20;0.90;;;;;;;37.24;12.79;100796.41;104396;1274;94609;-73
2022/09/07 10:05:32;;;;;;;4.80;0.80;;;;;;;37.32;11.40;100795.59;104154;1274;137616;-72
2022/09/07 10:08:01;;;;;;;3.40;0.70;;;;;;;37.04;11.37;100799.52;104290;1274;106063;-73
2022/09/07 10:10:30;;;;;;;2.40;0.70;;;;;;;36.95;11.22;100801.65;104156;1274;137839;-75
2022/09/07 10:12:58;;;;;;;3.20;0.70;;;;;;;37.34;11.65;100800.33;104249;1274;107967;-73
2022/09/07 10:15:36;;;;;;;3.60;0.80;;;;;;;37.63;11.25;100791.35;104319;1274;95252;-72
2022/09/07 10:18:21;;;;;;;4.90;1.00;;;;;;;37.55;11.57;100785.98;104098;1275;138023;-73
2022/09/07 10:20:49;;;;;;;3.40;0.80;;;;;;;37.82;11.11;100784.45;104339;1274;106918;-76
2022/09/07 10:23:26;;;;;;;3.60;0.70;;;;;;;37.43;10.59;100780.23;104282;1274;138979;-72
2022/09/07 10:25:57;;;;;;;3.90;0.80;;;;;;;37.11;10.52;100782.43;104515;1274;107929;-72
2022/09/07 10:28:25;;;;;;;4.00;0.70;;;;;;;37.08;10.74;100785.61;104203;1274;138659;-75
2022/09/07 10:31:23;;;;;;;4.70;0.90;;;;;;;37.03;10.94;100784.64;104341;1274;94902;-71
2022/09/07 10:34:05;;;;;;;3.20;0.80;;;;;;;37.64;10.98;100776.50;104211;1274;106228;-73
2022/09/07 10:37:02;;;;;;;3.20;0.70;;;;;;;38.33;9.75;100770.87;104693;1274;97316;-71
2022/09/07 10:39:36;;;;;;;3.20;0.80;;;;;;;37.83;9.67;100764.77;104410;1275;106442;-72
2022/09/07 10:42:18;;;;;;;2.60;0.70;;;;;;;37.34;9.53;100762.18;104453;1274;138174;-74
2022/09/07 10:45:00;;;;;;;2.80;0.70;;;;;;;37.12;9.90;100759.00;104619;1274;94231;-71
2022/09/07 10:47:56;;;;;;;2.80;0.70;;;;;;;37.09;10.25;100759.41;105244;1276;138648;-84
2022/09/07 10:50:38;;;;;;;3.30;0.80;;;;;;;34.90;11.37;100762.85;104722;1277;100198;-85
2022/09/07 10:53:53;;;;;;;3.40;0.70;;;;;;;33.20;12.60;100766.15;104743;1278;138381;-86
2022/09/07 10:57:07;;;;;;;3.00;0.60;;;;;;;30.79;14.85;100763.23;105081;1276;94284;-86
2022/09/07 10:59:45;;;;;;;2.80;0.90;;;;;;;29.64;15.18;100756.98;104601;1276;138335;-84
2022/09/07 11:02:45;;;;;;;2.40;0.70;;;;;;;28.65;16.70;100765.73;104779;1279;107367;-84
2022/09/07 11:05:48;;;;;;;4.60;0.90;;;;;;;28.01;16.98;100765.04;104623;1276;139070;-86
2022/09/07 11:08:48;;;;;;;4.10;0.80;;;;;;;27.45;17.14;100764.21;104692;1277;108360;-86
2022/09/07 11:11:50;;;;;;;2.90;0.90;;;;;;;26.37;18.29;100773.80;104290;1279;138125;-86
2022/09/07 11:14:44;;;;;;;3.20;0.90;;;;;;;25.66;19.76;100768.02;104806;1277;94378;-86
2022/09/07 11:17:26;;;;;;;5.00;1.00;;;;;;;25.25;19.48;100765.74;104529;1277;138714;-87
2022/09/07 11:20:46;;;;;;;3.10;0.60;;;;;;;24.48;19.29;100762.46;104689;1276;99659;-87
2022/09/07 11:23:28;;;;;;;2.50;0.60;;;;;;;23.91;19.51;100759.16;104405;1277;138389;-84
2022/09/07 11:26:06;;;;;;;2.60;0.60;;;;;;;23.56;20.03;100758.20;105289;1277;94814;-84
2022/09/07 11:29:11;;;;;;;4.60;1.00;;;;;;;22.96;20.12;100753.15;104615;1279;138106;-85
2022/09/07 11:32:26;;;;;;;3.10;0.80;;;;;;;22.62;21.87;100759.08;104700;1279;106810;-85
2022/09/07 11:35:19;;;;;;;2.40;0.80;;;;;;;22.43;21.98;100754.93;104513;1277;138711;-86
2022/09/07 11:39:25;;;;;;;4.50;1.00;;;;;;;22.05;21.83;100745.05;104776;1279;109226;-84
2022/09/07 11:42:13;;;;;;;3.60;0.90;;;;;;;21.99;23.08;100733.90;104276;1278;138160;-84
2022/09/07 11:45:27;;;;;;;3.20;0.70;;;;;;;21.88;23.10;100739.22;104885;1278;94306;-85
2022/09/07 11:48:24;;;;;;;4.40;0.90;;;;;;;21.63;22.54;100736.16;104204;1278;138493;-85
2022/09/07 11:51:55;;;;;;;3.50;0.80;;;;;;;21.57;22.63;100734.77;105283;1277;98201;-83
2022/09/07 11:54:52;;;;;;;2.60;0.70;;;;;;;21.57;22.30;100728.79;104087;1278;108046;-85